Time,TemperatureF,DewpointF,PressureIn,WindDirection,WindDirectionDegrees,WindSpeedMPH,WindSpeedGustMPH,Humidity,HourlyPrecipIn,Conditions,Clouds,dailyrainin,SoftwareType,DateUTC
2013-03-30 00:02:00,42.0,41.0,-100.00,NW,320,0.0,1.0,96,-99.99,,,-99.99,,2013-03-30 06:02:00,
2013-03-30 00:11:00,41.0,41.0,-100.00,NW,320,0.0,0.0,97,-99.99,,,-99.99,,2013-03-30 06:11:00,
2013-03-30 00:22:00,41.0,41.0,-100.00,NW,320,0.0,1.0,97,-99.99,,,-99.99,,2013-03-30 06:22:00,
2013-03-30 00:32:00,41.0,40.0,-100.00,WSW,255,0.0,1.0,98,-99.99,,,-99.99,,2013-03-30 06:32:00,
2013-03-30 00:42:00,41.0,40.0,-100.00,WNW,295,0.0,1.0,98,-99.99,,,-99.99,,2013-03-30 06:42:00,
2013-03-30 00:52:00,41.0,40.0,-100.00,WNW,290,0.0,1.0,98,-99.99,,,-99.99,,2013-03-30 06:52:00,
2013-03-30 01:02:00,40.0,40.0,-100.00,WNW,295,0.0,2.0,98,-99.99,,,-99.99,,2013-03-30 07:02:00,
2013-03-30 01:12:00,40.0,39.0,-100.00,NW,305,0.0,1.0,98,-99.99,,,-99.99,,2013-03-30 07:12:00,
2013-03-30 01:22:00,39.0,39.0,-100.00,WNW,300,0.0,0.0,99,-99.99,,,-99.99,,2013-03-30 07:22:00,
2013-03-30 01:32:00,38.0,38.0,-100.00,NW,310,0.0,1.0,99,-99.99,,,-99.99,,2013-03-30 07:32:00,
2013-03-30 01:42:00,38.0,38.0,-100.00,NW,310,0.0,1.0,99,-99.99,,,-99.99,,2013-03-30 07:42:00,
2013-03-30 01:52:00,38.0,38.0,-100.00,NW,320,0.0,1.0,99,-99.99,,,-99.99,,2013-03-30 07:52:00,
2013-03-30 02:01:00,37.0,37.0,-100.00,NW,320,0.0,1.0,99,-99.99,,,-99.99,,2013-03-30 08:01:00,
2013-03-30 02:12:00,37.0,37.0,-100.00,NW,310,0.0,2.0,100,-99.99,,,-99.99,,2013-03-30 08:12:00,
2013-03-30 02:21:00,36.0,36.0,-100.00,NW,320,0.0,0.0,99,-99.99,,,-99.99,,2013-03-30 08:21:00,
2013-03-30 02:32:00,36.0,36.0,-100.00,NW,320,0.0,0.0,99,-99.99,,,-99.99,,2013-03-30 08:32:00,
2013-03-30 02:42:00,35.0,35.0,-100.00,NW,320,0.0,0.0,99,-99.99,,,-99.99,,2013-03-30 08:42:00,
2013-03-30 02:52:00,35.0,35.0,-100.00,NW,320,0.0,0.0,99,-99.99,,,-99.99,,2013-03-30 08:52:00,
2013-03-30 03:02:00,35.0,35.0,-100.00,NW,320,0.0,1.0,99,-99.99,,,-99.99,,2013-03-30 09:02:00,
2013-03-30 03:12:00,34.0,34.0,-100.00,NW,320,0.0,0.0,99,-99.99,,,-99.99,,2013-03-30 09:12:00,
2013-03-30 03:22:00,34.0,34.0,-100.00,NW,320,0.0,0.0,99,-99.99,,,-99.99,,2013-03-30 09:22:00,
2013-03-30 03:33:00,34.0,34.0,-100.00,NW,320,0.0,0.0,99,-99.99,,,-99.99,,2013-03-30 09:33:00,
2013-03-30 03:42:00,34.0,34.0,-100.00,NW,320,0.0,0.0,99,-99.99,,,-99.99,,2013-03-30 09:42:00,
2013-03-30 03:53:00,33.0,33.0,-100.00,NW,320,0.0,0.0,99,-99.99,,,-99.99,,2013-03-30 09:53:00,
2013-03-30 04:02:00,33.0,33.0,-100.00,NW,320,0.0,0.0,99,-99.99,,,-99.99,,2013-03-30 10:02:00,
2013-03-30 04:12:00,33.0,33.0,-100.00,NW,320,0.0,0.0,99,-99.99,,,-99.99,,2013-03-30 10:12:00,
2013-03-30 04:23:00,33.0,33.0,-100.00,NW,315,0.0,0.0,99,-99.99,,,-99.99,,2013-03-30 10:23:00,
2013-03-30 04:32:00,33.0,33.0,-100.00,NW,315,0.0,0.0,99,-99.99,,,-99.99,,2013-03-30 10:32:00,
2013-03-30 04:42:00,33.0,33.0,-100.00,NW,320,0.0,0.0,99,-99.99,,,-99.99,,2013-03-30 10:42:00,
2013-03-30 04:52:00,32.0,32.0,-100.00,NW,320,0.0,0.0,99,-99.99,,,-99.99,,2013-03-30 10:52:00,
2013-03-30 05:03:00,32.0,32.0,-100.00,NW,320,0.0,0.0,99,-99.99,,,-99.99,,2013-03-30 11:03:00,
2013-03-30 05:12:00,32.0,32.0,-100.00,NW,320,0.0,0.0,99,-99.99,,,-99.99,,2013-03-30 11:12:00,
2013-03-30 05:22:00,31.0,31.0,-100.00,NW,320,0.0,0.0,99,-99.99,,,-99.99,,2013-03-30 11:22:00,
2013-03-30 05:32:00,31.0,31.0,-100.00,NW,320,0.0,1.0,99,-99.99,,,-99.99,,2013-03-30 11:32:00,
2013-03-30 05:42:00,31.0,31.0,-100.00,NW,320,0.0,0.0,99,-99.99,,,-99.99,,2013-03-30 11:42:00,
2013-03-30 05:52:00,31.0,31.0,-100.00,NW,320,0.0,0.0,99,-99.99,,,-99.99,,2013-03-30 11:52:00,
2013-03-30 06:02:00,31.0,31.0,-100.00,NW,320,1.0,1.0,99,-99.99,,,-99.99,,2013-03-30 12:02:00,
2013-03-30 06:12:00,31.0,31.0,-100.00,NW,320,0.0,1.0,99,-99.99,,,-99.99,,2013-03-30 12:12:00,
2013-03-30 06:22:00,31.0,31.0,-100.00,NW,320,0.0,0.0,99,-99.99,,,-99.99,,2013-03-30 12:22:00,
2013-03-30 06:32:00,31.0,31.0,-100.00,NW,320,0.0,0.0,99,-99.99,,,-99.99,,2013-03-30 12:32:00,
2013-03-30 06:42:00,31.0,31.0,-100.00,NW,320,0.0,0.0,99,-99.99,,,-99.99,,2013-03-30 12:42:00,
2013-03-30 06:52:00,31.0,31.0,-100.00,NW,320,0.0,1.0,99,-99.99,,,-99.99,,2013-03-30 12:52:00,
2013-03-30 07:02:00,31.0,31.0,-100.00,NW,320,0.0,1.0,99,-99.99,,,-99.99,,2013-03-30 13:02:00,
2013-03-30 07:12:00,31.0,31.0,-100.00,NW,320,0.0,0.0,99,-99.99,,,-99.99,,2013-03-30 13:12:00,
2013-03-30 07:22:00,31.0,31.0,-100.00,NW,320,0.0,0.0,99,-99.99,,,-99.99,,2013-03-30 13:22:00,
2013-03-30 07:32:00,31.0,31.0,-100.00,NW,320,0.0,0.0,99,-99.99,,,-99.99,,2013-03-30 13:32:00,
2013-03-30 07:42:00,31.0,31.0,-100.00,NW,320,0.0,0.0,99,-99.99,,,-99.99,,2013-03-30 13:42:00,
2013-03-30 07:52:00,31.0,31.0,-100.00,NW,320,0.0,0.0,99,-99.99,,,-99.99,,2013-03-30 13:52:00,
2013-03-30 08:02:00,32.0,32.0,-100.00,NW,320,0.0,0.0,99,-99.99,,,-99.99,,2013-03-30 14:02:00,
2013-03-30 08:11:00,33.0,33.0,-100.00,NW,320,0.0,0.0,99,-99.99,,,-99.99,,2013-03-30 14:11:00,
2013-03-30 08:22:00,34.0,34.0,-100.00,NW,315,0.0,0.0,99,-99.99,,,-99.99,,2013-03-30 14:22:00,
2013-03-30 08:32:00,35.0,35.0,-100.00,East,85,2.0,2.0,99,-99.99,,,-99.99,,2013-03-30 14:32:00,
2013-03-30 08:42:00,35.0,35.0,-100.00,East,85,2.0,2.0,99,-99.99,,,-99.99,,2013-03-30 14:42:00,
2013-03-30 08:52:00,35.0,35.0,-100.00,ENE,60,0.0,2.0,99,-99.99,,,-99.99,,2013-03-30 14:52:00,
2013-03-30 09:02:00,36.0,36.0,-100.00,East,90,1.0,2.0,99,-99.99,,,-99.99,,2013-03-30 15:02:00,
2013-03-30 09:12:00,36.0,36.0,-100.00,SSE,155,1.0,3.0,99,-99.99,,,-99.99,,2013-03-30 15:12:00,
2013-03-30 09:22:00,37.0,37.0,-100.00,ENE,75,0.0,5.0,99,-99.99,,,-99.99,,2013-03-30 15:22:00,
2013-03-30 09:33:00,40.0,40.0,-100.00,East,95,2.0,6.0,99,-99.99,,,-99.99,,2013-03-30 15:33:00,
2013-03-30 09:42:00,40.0,40.0,-100.00,East,95,2.0,6.0,99,-99.99,,,-99.99,,2013-03-30 15:42:00,
2013-03-30 09:52:00,41.0,41.0,-100.00,ENE,75,2.0,5.0,99,-99.99,,,-99.99,,2013-03-30 15:52:00,
2013-03-30 10:03:00,41.0,39.0,-100.00,ENE,65,1.0,4.0,94,-99.99,,,-99.99,,2013-03-30 16:03:00,
2013-03-30 10:12:00,42.0,38.0,-100.00,East,95,1.0,4.0,85,-99.99,,,-99.99,,2013-03-30 16:12:00,
2013-03-30 10:23:00,44.0,38.0,-100.00,ENE,65,2.0,4.0,77,-99.99,,,-99.99,,2013-03-30 16:23:00,
2013-03-30 10:32:00,47.0,36.0,-100.00,ESE,110,4.0,6.0,65,-99.99,,,-99.99,,2013-03-30 16:32:00,
2013-03-30 10:42:00,47.0,36.0,-100.00,ESE,110,4.0,6.0,65,-99.99,,,-99.99,,2013-03-30 16:42:00,
2013-03-30 10:52:00,47.0,35.0,-100.00,ESE,110,2.0,6.0,63,-99.99,,,-99.99,,2013-03-30 16:52:00,
2013-03-30 11:02:00,48.0,35.0,-100.00,ENE,65,3.0,6.0,59,-99.99,,,-99.99,,2013-03-30 17:02:00,
2013-03-30 11:12:00,50.0,34.0,-100.00,East,100,3.0,6.0,54,-99.99,,,-99.99,,2013-03-30 17:12:00,
2013-03-30 11:22:00,52.0,34.0,-100.00,ESE,105,4.0,7.0,50,-99.99,,,-99.99,,2013-03-30 17:22:00,
2013-03-30 11:32:00,54.0,33.0,-100.00,ESE,105,4.0,7.0,46,-99.99,,,-99.99,,2013-03-30 17:32:00,
2013-03-30 11:42:00,55.0,32.0,-100.00,ENE,75,2.0,7.0,42,-99.99,,,-99.99,,2013-03-30 17:42:00,
2013-03-30 11:52:00,56.0,33.0,-100.00,South,180,1.0,5.0,40,-99.99,,,-99.99,,2013-03-30 17:52:00,
2013-03-30 12:02:00,55.0,31.0,-100.00,East,90,4.0,6.0,40,-99.99,,,-99.99,,2013-03-30 18:02:00,
2013-03-30 12:12:00,54.0,31.0,-100.00,East,90,2.0,4.0,40,-99.99,,,-99.99,,2013-03-30 18:12:00,
2013-03-30 12:22:00,55.0,30.0,-100.00,SE,135,1.0,4.0,39,-99.99,,,-99.99,,2013-03-30 18:22:00,
2013-03-30 12:32:00,58.0,30.0,-100.00,South,175,1.0,6.0,34,-99.99,,,-99.99,,2013-03-30 18:32:00,
2013-03-30 12:42:00,60.0,27.0,-100.00,SW,225,8.0,14.0,28,-99.99,,,-99.99,,2013-03-30 18:42:00,
2013-03-30 12:52:00,61.0,26.0,-100.00,SSW,200,6.0,13.0,26,-99.99,,,-99.99,,2013-03-30 18:52:00,
2013-03-30 13:02:00,63.0,26.0,-100.00,SW,225,8.0,11.0,24,-99.99,,,-99.99,,2013-03-30 19:02:00,
2013-03-30 13:12:00,63.0,25.0,-100.00,South,180,4.0,12.0,23,-99.99,,,-99.99,,2013-03-30 19:12:00,
2013-03-30 13:22:00,64.0,24.0,-100.00,West,260,2.0,12.0,22,-99.99,,,-99.99,,2013-03-30 19:22:00,
2013-03-30 13:32:00,64.0,24.0,-100.00,SSE,155,2.0,13.0,22,-99.99,,,-99.99,,2013-03-30 19:32:00,
2013-03-30 13:42:00,63.0,24.0,-100.00,South,190,3.0,17.0,22,-99.99,,,-99.99,,2013-03-30 19:42:00,
2013-03-30 13:52:00,62.0,23.0,-100.00,SW,230,7.0,16.0,22,-99.99,,,-99.99,,2013-03-30 19:52:00,
2013-03-30 14:02:00,62.0,23.0,-100.00,SW,230,7.0,16.0,22,-99.99,,,-99.99,,2013-03-30 20:02:00,
2013-03-30 14:12:00,62.0,23.0,-100.00,SW,230,7.0,12.0,22,-99.99,,,-99.99,,2013-03-30 20:12:00,
2013-03-30 14:21:00,62.0,22.0,-100.00,SW,230,9.0,14.0,21,-99.99,,,-99.99,,2013-03-30 20:21:00,
2013-03-30 14:32:00,63.0,23.0,-100.00,SSW,205,8.0,14.0,21,-99.99,,,-99.99,,2013-03-30 20:32:00,
2013-03-30 14:42:00,63.0,23.0,-100.00,South,190,7.0,15.0,21,-99.99,,,-99.99,,2013-03-30 20:42:00,
2013-03-30 14:52:00,61.0,21.0,-100.00,South,190,4.0,12.0,20,-99.99,,,-99.99,,2013-03-30 20:52:00,
2013-03-30 15:02:00,60.0,20.0,-100.00,SSE,155,6.0,12.0,20,-99.99,,,-99.99,,2013-03-30 21:02:00,
2013-03-30 15:12:00,60.0,20.0,-100.00,SSE,155,6.0,12.0,20,-99.99,,,-99.99,,2013-03-30 21:12:00,
2013-03-30 15:22:00,60.0,20.0,-100.00,SW,215,7.0,17.0,20,-99.99,,,-99.99,,2013-03-30 21:22:00,
2013-03-30 15:32:00,62.0,22.0,-100.00,SSW,200,7.0,12.0,20,-99.99,,,-99.99,,2013-03-30 21:32:00,
2013-03-30 15:43:00,62.0,20.0,-100.00,SSW,210,11.0,21.0,20,-99.99,,,-99.99,,2013-03-30 21:43:00,
2013-03-30 15:52:00,62.0,21.0,-100.00,SW,230,11.0,21.0,20,-99.99,,,-99.99,,2013-03-30 21:52:00,
2013-03-30 16:02:00,64.0,22.0,-100.00,SW,220,5.0,13.0,19,-99.99,,,-99.99,,2013-03-30 22:02:00,
2013-03-30 16:12:00,65.0,22.0,-100.00,SSW,195,9.0,19.0,18,-99.99,,,-99.99,,2013-03-30 22:12:00,
2013-03-30 16:23:00,65.0,22.0,-100.00,SSW,210,6.0,21.0,18,-99.99,,,-99.99,,2013-03-30 22:23:00,
2013-03-30 16:32:00,65.0,21.0,-100.00,SSE,165,5.0,15.0,18,-99.99,,,-99.99,,2013-03-30 22:32:00,
2013-03-30 16:43:00,65.0,21.0,-100.00,SSE,165,5.0,15.0,18,-99.99,,,-99.99,,2013-03-30 22:43:00,
2013-03-30 16:53:00,65.0,21.0,-100.00,SW,230,11.0,16.0,18,-99.99,,,-99.99,,2013-03-30 22:53:00,
2013-03-30 17:02:00,64.0,21.0,-100.00,WSW,240,7.0,17.0,18,-99.99,,,-99.99,,2013-03-30 23:02:00,
2013-03-30 17:12:00,63.0,20.0,-100.00,SW,220,5.0,12.0,18,-99.99,,,-99.99,,2013-03-30 23:12:00,
2013-03-30 17:22:00,62.0,20.0,-100.00,SSW,205,7.0,14.0,19,-99.99,,,-99.99,,2013-03-30 23:22:00,
2013-03-30 17:32:00,62.0,20.0,-100.00,SSW,210,5.0,11.0,19,-99.99,,,-99.99,,2013-03-30 23:32:00,
2013-03-30 17:42:00,62.0,20.0,-100.00,SSW,210,5.0,11.0,19,-99.99,,,-99.99,,2013-03-30 23:42:00,
2013-03-30 17:52:00,60.0,19.0,-100.00,SW,235,3.0,12.0,19,-99.99,,,-99.99,,2013-03-30 23:52:00,
2013-03-30 18:02:00,59.0,18.0,-100.00,SW,225,4.0,12.0,20,-99.99,,,-99.99,,2013-03-31 00:02:00,
2013-03-30 18:11:00,59.0,18.0,-100.00,SSW,210,6.0,9.0,20,-99.99,,,-99.99,,2013-03-31 00:11:00,
2013-03-30 18:22:00,59.0,17.0,-100.00,SW,230,0.0,7.0,19,-99.99,,,-99.99,,2013-03-31 00:22:00,
2013-03-30 18:32:00,60.0,18.0,-100.00,West,270,5.0,17.0,19,-99.99,,,-99.99,,2013-03-31 00:32:00,
2013-03-30 18:42:00,58.0,19.0,-100.00,SW,235,4.0,10.0,21,-99.99,,,-99.99,,2013-03-31 00:42:00,
2013-03-30 18:52:00,57.0,19.0,-100.00,SW,230,4.0,11.0,22,-99.99,,,-99.99,,2013-03-31 00:52:00,
2013-03-30 19:02:00,57.0,19.0,-100.00,NW,310,6.0,11.0,22,-99.99,,,-99.99,,2013-03-31 01:02:00,
2013-03-30 19:12:00,56.0,19.0,-100.00,West,265,4.0,10.0,22,-99.99,,,-99.99,,2013-03-31 01:12:00,
2013-03-30 19:22:00,56.0,19.0,-100.00,WNW,295,1.0,7.0,22,-99.99,,,-99.99,,2013-03-31 01:22:00,
2013-03-30 19:32:00,55.0,19.0,-100.00,West,260,3.0,6.0,24,-99.99,,,-99.99,,2013-03-31 01:32:00,
2013-03-30 19:42:00,55.0,19.0,-100.00,SW,235,4.0,7.0,24,-99.99,,,-99.99,,2013-03-31 01:42:00,
2013-03-30 19:52:00,54.0,20.0,-100.00,WNW,290,3.0,9.0,26,-99.99,,,-99.99,,2013-03-31 01:52:00,
2013-03-30 20:02:00,52.0,21.0,-100.00,West,265,0.0,12.0,28,-99.99,,,-99.99,,2013-03-31 02:02:00,
2013-03-30 20:12:00,51.0,21.0,-100.00,ESE,105,5.0,7.0,30,-99.99,,,-99.99,,2013-03-31 02:12:00,
2013-03-30 20:22:00,50.0,22.0,-100.00,NE,55,8.0,14.0,32,-99.99,,,-99.99,,2013-03-31 02:22:00,
2013-03-30 20:32:00,49.0,23.0,-100.00,NE,55,5.0,14.0,35,-99.99,,,-99.99,,2013-03-31 02:32:00,
2013-03-30 20:42:00,49.0,24.0,-100.00,ENE,75,4.0,12.0,37,-99.99,,,-99.99,,2013-03-31 02:42:00,
2013-03-30 20:52:00,48.0,24.0,-100.00,SE,130,1.0,6.0,39,-99.99,,,-99.99,,2013-03-31 02:52:00,
2013-03-30 21:02:00,46.0,24.0,-100.00,WSW,240,1.0,3.0,41,-99.99,,,-99.99,,2013-03-31 03:02:00,
2013-03-30 21:12:00,45.0,24.0,-100.00,NNW,345,1.0,4.0,43,-99.99,,,-99.99,,2013-03-31 03:12:00,
2013-03-30 21:22:00,44.0,24.0,-100.00,WNW,295,2.0,4.0,44,-99.99,,,-99.99,,2013-03-31 03:22:00,
2013-03-30 21:32:00,44.0,25.0,-100.00,NW,310,1.0,3.0,46,-99.99,,,-99.99,,2013-03-31 03:32:00,
2013-03-30 21:43:00,43.0,25.0,-100.00,West,280,0.0,4.0,47,-99.99,,,-99.99,,2013-03-31 03:43:00,
2013-03-30 21:53:00,42.0,25.0,-100.00,NNW,330,2.0,2.0,50,-99.99,,,-99.99,,2013-03-31 03:53:00,
2013-03-30 22:02:00,42.0,-99.9,-100.00,NNW,330,2.0,2.0,50,-99.99,,,-99.99,,2013-03-31 04:02:00,
2013-03-30 22:12:00,41.0,25.0,-100.00,SW,235,2.0,4.0,52,-99.99,,,-99.99,,2013-03-31 04:12:00,
2013-03-30 22:22:00,40.0,25.0,-100.00,NNE,25,0.0,2.0,53,-99.99,,,-99.99,,2013-03-31 04:22:00,
2013-03-30 22:32:00,39.0,25.0,-100.00,NNE,25,1.0,1.0,55,-99.99,,,-99.99,,2013-03-31 04:32:00,
2013-03-30 22:42:00,39.0,25.0,-100.00,NE,35,1.0,4.0,57,-99.99,,,-99.99,,2013-03-31 04:42:00,
2013-03-30 22:52:00,38.0,25.0,-100.00,NNE,20,0.0,0.0,60,-99.99,,,-99.99,,2013-03-31 04:52:00,
2013-03-30 23:02:00,38.0,25.0,-100.00,NNE,20,0.0,0.0,60,-99.99,,,-99.99,,2013-03-31 05:02:00,
2013-03-30 23:12:00,37.0,25.0,-100.00,NNE,20,0.0,1.0,62,-99.99,,,-99.99,,2013-03-31 05:12:00,
2013-03-30 23:22:00,37.0,25.0,-100.00,NNE,20,0.0,0.0,62,-99.99,,,-99.99,,2013-03-31 05:22:00,
2013-03-30 23:32:00,36.0,26.0,-100.00,NNE,20,0.0,1.0,64,-99.99,,,-99.99,,2013-03-31 05:32:00,
2013-03-30 23:42:00,36.0,25.0,-100.00,NNW,340,0.0,3.0,65,-99.99,,,-99.99,,2013-03-31 05:42:00,
2013-03-30 23:52:00,36.0,26.0,-100.00,NNW,340,0.0,0.0,66,-99.99,,,-99.99,,2013-03-31 05:52:00,